Time;durP1;ratioP1;P1;durP2;ratioP2;P2;SDS_P1;SDS_P2;PMS_P1;PMS_P2;Temp;Humidity;BMP_temperature;BMP_pressure;BME280_temperature;BME280_humidity;BME280_pressure;Samples;Min_cycle;Max_cycle;Signal;HPM_P1;HPM_P2
2022/09/15 00:00:44;;;;;;;10.40;7.80;;;;;;;16.03;79.32;98465.36;213864;1276;141964;-65
2022/09/15 00:06:08;;;;;;;12.30;10.00;;;;;;;16.03;79.37;98468.27;213058;1276;142025;-67
2022/09/15 00:11:21;;;;;;;10.60;8.50;;;;;;;16.00;79.49;98471.11;214020;1276;143288;-65
2022/09/15 00:16:26;;;;;;;10.50;8.00;;;;;;;15.96;79.52;98467.80;213131;1276;141651;-65
2022/09/15 00:21:31;;;;;;;9.80;8.20;;;;;;;15.89;79.54;98467.14;213585;1276;141113;-65
2022/09/15 00:26:34;;;;;;;9.60;8.30;;;;;;;15.84;79.40;98471.08;213139;1276;142265;-66
2022/09/15 00:31:37;;;;;;;10.60;7.80;;;;;;;15.77;79.40;98461.75;213015;1276;141611;-63
2022/09/15 00:36:40;;;;;;;11.10;6.30;;;;;;;15.76;79.42;98453.66;213327;1276;141854;-65
2022/09/15 00:41:44;;;;;;;7.00;5.60;;;;;;;15.72;79.34;98450.73;212904;1276;140508;-64
2022/09/15 00:46:52;;;;;;;9.80;6.10;;;;;;;15.64;79.15;98447.23;214161;1276;140513;-65
2022/09/15 00:52:28;;;;;;;8.30;6.50;;;;;;;15.53;79.05;98441.85;213300;1276;140013;-66
2022/09/15 00:57:39;;;;;;;6.80;5.50;;;;;;;15.44;79.20;98441.16;213808;1276;141725;-65
2022/09/15 01:02:45;;;;;;;15.70;6.50;;;;;;;15.34;79.09;98439.55;212684;1276;140136;-64
2022/09/15 01:07:58;;;;;;;8.40;5.60;;;;;;;15.17;78.97;98434.03;213979;1276;140773;-69
2022/09/15 01:13:04;;;;;;;7.00;5.30;;;;;;;14.98;79.02;98426.20;215496;1276;139874;-68
2022/09/15 01:18:17;;;;;;;17.70;6.20;;;;;;;14.89;79.54;98420.94;215714;1276;140054;-67
2022/09/15 01:23:46;;;;;;;6.30;5.10;;;;;;;14.89;79.50;98411.84;215485;1276;139946;-68
2022/09/15 01:29:01;;;;;;;6.10;4.70;;;;;;;14.89;79.67;98398.08;215716;1276;141453;-67
2022/09/15 01:34:15;;;;;;;5.80;5.00;;;;;;;14.92;79.80;98395.79;215704;1276;142061;-67
2022/09/15 01:39:24;;;;;;;14.90;5.80;;;;;;;14.93;79.69;98391.42;215810;1275;140883;-66
2022/09/15 01:44:48;;;;;;;5.70;5.10;;;;;;;14.93;79.86;98389.21;213583;1276;140425;-65
2022/09/15 01:50:15;;;;;;;6.80;5.70;;;;;;;14.96;80.12;98381.87;214098;1276;141961;-65
2022/09/15 01:55:30;;;;;;;8.10;5.50;;;;;;;14.98;80.09;98384.02;214206;1276;209133;-63
2022/09/15 02:00:38;;;;;;;10.10;5.90;;;;;;;14.86;80.07;98384.34;213451;1276;139368;-65
2022/09/15 02:05:50;;;;;;;11.80;5.60;;;;;;;14.87;80.41;98387.70;213498;1276;142895;-66
2022/09/15 02:11:00;;;;;;;8.20;5.20;;;;;;;14.84;80.31;98386.73;213913;1275;141476;-65
2022/09/15 02:16:03;;;;;;;8.10;5.30;;;;;;;14.85;80.58;98390.33;214527;1276;142095;-65
2022/09/15 02:21:17;;;;;;;6.40;4.90;;;;;;;14.89;80.75;98395.40;213725;1276;140437;-65
2022/09/15 02:26:24;;;;;;;8.40;5.30;;;;;;;14.92;80.67;98392.24;213002;1276;140629;-68
2022/09/15 02:31:26;;;;;;;;;;;;;;;14.92;80.79;98399.38;213245;1276;140277;-69
2022/09/15 02:36:29;;;;;;;6.40;5.30;;;;;;;14.87;80.62;98392.71;214186;1276;126991;-67
2022/09/15 02:41:34;;;;;;;8.00;6.00;;;;;;;14.83;80.63;98387.83;212870;1276;140195;-66
2022/09/15 02:46:36;;;;;;;10.80;6.10;;;;;;;14.80;80.79;98384.88;213601;1276;142345;-66
2022/09/15 02:51:38;;;;;;;9.30;5.80;;;;;;;14.78;80.80;98390.48;213034;1273;140431;-66
2022/09/15 02:56:40;;;;;;;9.70;5.70;;;;;;;14.82;81.05;98388.92;213451;1276;140014;-67
2022/09/15 03:01:43;;;;;;;11.10;6.40;;;;;;;14.86;81.34;98387.63;214368;1276;140721;-67
2022/09/15 03:06:46;;;;;;;8.20;6.30;;;;;;;14.87;81.10;98389.60;213611;1276;140275;-66
2022/09/15 03:11:49;;;;;;;9.50;6.00;;;;;;;14.83;81.09;98395.77;214805;1276;140296;-66
2022/09/15 03:16:52;;;;;;;8.90;5.60;;;;;;;14.79;80.72;98393.90;215731;1276;139681;-67
2022/09/15 03:21:55;;;;;;;13.90;5.40;;;;;;;14.75;80.72;98389.30;215855;1276;140712;-67
2022/09/15 03:26:59;;;;;;;6.50;3.90;;;;;;;14.75;80.63;98390.27;215875;1273;141067;-66
2022/09/15 03:32:02;;;;;;;8.20;4.60;;;;;;;14.71;80.44;98392.48;215029;1275;139516;-66
2022/09/15 03:37:05;;;;;;;7.50;4.10;;;;;;;14.68;80.81;98390.18;213131;1276;141869;-67
2022/09/15 03:42:08;;;;;;;5.00;4.50;;;;;;;14.67;80.68;98386.77;214604;1276;140670;-67
2022/09/15 03:47:10;;;;;;;6.20;4.40;;;;;;;14.63;80.68;98383.94;214485;1274;140791;-66
2022/09/15 03:52:14;;;;;;;4.90;3.90;;;;;;;14.64;80.78;98385.38;214314;1276;141028;-67
2022/09/15 03:57:16;;;;;;;5.70;3.70;;;;;;;14.55;80.37;98379.30;215226;1276;140055;-66
2022/09/15 04:02:20;;;;;;;3.70;2.90;;;;;;;14.47;80.84;98380.00;214529;1276;139362;-67
2022/09/15 04:07:22;;;;;;;3.70;2.90;;;;;;;14.44;80.80;98380.20;214345;1276;139886;-66
2022/09/15 04:12:24;;;;;;;5.90;3.10;;;;;;;14.38;80.50;98377.41;212876;1276;141171;-67
2022/09/15 04:17:26;;;;;;;6.30;3.30;;;;;;;14.29;81.02;98380.01;212679;1276;142079;-66
2022/09/15 04:22:31;;;;;;;5.00;3.50;;;;;;;14.32;81.14;98386.66;212907;1276;141074;-67
2022/09/15 04:27:37;;;;;;;7.80;4.10;;;;;;;14.39;81.21;98392.86;212875;1276;141233;-66
2022/09/15 04:32:39;;;;;;;6.50;3.90;;;;;;;14.39;81.51;98391.20;213884;1275;139692;-67
2022/09/15 04:37:42;;;;;;;9.80;4.40;;;;;;;14.37;81.36;98385.49;214567;1274;140705;-69
2022/09/15 04:42:45;;;;;;;4.40;3.50;;;;;;;14.35;81.34;98380.82;214059;1276;141093;-67
2022/09/15 04:47:50;;;;;;;19.60;5.20;;;;;;;14.35;81.26;98384.53;214765;1276;141266;-66
2022/09/15 04:52:54;;;;;;;6.00;4.00;;;;;;;14.38;81.33;98390.36;213332;1276;141657;-67
2022/09/15 04:57:57;;;;;;;5.10;3.70;;;;;;;14.35;81.07;98391.02;213985;1276;163709;-67
2022/09/15 05:02:59;;;;;;;4.30;4.00;;;;;;;14.28;81.40;98394.06;214373;1276;140951;-67
2022/09/15 05:08:02;;;;;;;4.90;3.70;;;;;;;14.26;81.68;98400.36;214972;1276;140108;-67
2022/09/15 05:13:05;;;;;;;4.50;4.10;;;;;;;14.35;81.83;98405.11;215733;1274;142387;-66
2022/09/15 05:18:07;;;;;;;5.20;3.90;;;;;;;14.44;81.82;98412.81;215776;1276;141526;-66
2022/09/15 05:23:10;;;;;;;6.10;4.10;;;;;;;14.51;81.56;98407.09;215955;1276;141190;-66
2022/09/15 05:28:13;;;;;;;6.00;5.40;;;;;;;14.56;81.61;98402.72;215743;1276;140918;-66
2022/09/15 05:33:16;;;;;;;8.10;5.40;;;;;;;14.62;81.51;98403.23;213781;1276;142350;-66
2022/09/15 05:38:20;;;;;;;6.80;4.20;;;;;;;14.68;81.51;98402.57;216092;1276;140782;-67
2022/09/15 05:43:22;;;;;;;13.20;4.50;;;;;;;14.71;81.37;98395.73;215140;1276;140900;-66
2022/09/15 05:48:26;;;;;;;5.20;4.70;;;;;;;14.74;81.22;98393.40;212995;1276;142523;-66
2022/09/15 05:53:30;;;;;;;9.10;4.90;;;;;;;14.77;81.36;98404.02;213473;1276;141337;-66
2022/09/15 05:58:33;;;;;;;5.00;4.20;;;;;;;14.85;81.42;98411.94;213927;1276;142455;-66
2022/09/15 06:03:36;;;;;;;4.30;3.50;;;;;;;14.88;81.10;98416.66;213858;1276;141754;-65
2022/09/15 06:08:41;;;;;;;7.00;5.00;;;;;;;14.81;81.05;98412.05;213154;1275;141386;-66
2022/09/15 06:13:47;;;;;;;10.00;4.60;;;;;;;14.90;81.50;98415.18;213922;1275;140718;-66
2022/09/15 06:18:55;;;;;;;11.40;4.60;;;;;;;15.04;81.54;98415.61;213579;1276;140901;-66
2022/09/15 06:24:02;;;;;;;7.70;4.50;;;;;;;15.17;81.58;98420.17;213261;1276;142408;-65
2022/09/15 06:29:05;;;;;;;8.30;4.00;;;;;;;15.22;81.46;98434.26;213505;1276;143537;-66
2022/09/15 06:34:10;;;;;;;9.60;4.10;;;;;;;15.16;81.24;98440.12;213665;1276;140654;-66
2022/09/15 06:39:12;;;;;;;4.90;3.50;;;;;;;15.19;80.98;98445.86;214332;1276;141792;-67
2022/09/15 06:44:15;;;;;;;7.80;3.60;;;;;;;15.19;80.76;98446.73;213225;1276;141071;-66
2022/09/15 06:49:18;;;;;;;6.60;3.70;;;;;;;15.24;80.71;98448.88;213457;1276;141373;-67
2022/09/15 06:54:20;;;;;;;10.60;4.10;;;;;;;15.41;80.93;98450.76;214234;1276;140960;-66
2022/09/15 06:59:23;;;;;;;5.20;3.70;;;;;;;15.68;80.85;98448.77;214918;1276;143079;-66
2022/09/15 07:04:35;;;;;;;7.70;4.00;;;;;;;15.95;80.56;98451.27;214673;1275;140797;-66
2022/09/15 07:09:38;;;;;;;4.70;3.70;;;;;;;16.64;80.46;98454.20;214765;1276;140861;-66
2022/09/15 07:14:43;;;;;;;5.80;4.40;;;;;;;17.55;79.87;98456.54;214319;1276;139639;-66
2022/09/15 07:19:46;;;;;;;6.60;3.10;;;;;;;18.92;79.13;98459.45;214925;1276;151292;-66
2022/09/15 07:24:49;;;;;;;7.30;3.70;;;;;;;20.22;77.46;98463.64;216110;1276;139915;-66
2022/09/15 07:29:52;;;;;;;6.20;2.80;;;;;;;21.15;75.07;98469.35;215515;1276;139751;-67
2022/09/15 07:34:54;;;;;;;12.00;3.30;;;;;;;21.64;73.32;98474.50;214816;1276;138812;-66
2022/09/15 07:40:04;;;;;;;8.80;3.90;;;;;;;21.30;71.16;98475.14;214892;1275;141208;-66
2022/09/15 07:45:08;;;;;;;6.60;3.60;;;;;;;21.04;70.68;98480.04;213380;1276;140212;-66
2022/09/15 07:50:13;;;;;;;4.20;2.40;;;;;;;21.26;70.70;98477.20;214714;1276;140340;-66
2022/09/15 07:55:17;;;;;;;7.50;3.80;;;;;;;21.32;70.17;98484.44;213525;1276;140404;-65
2022/09/15 08:00:19;;;;;;;4.30;3.30;;;;;;;21.37;69.92;98491.05;214532;1274;139882;-66
2022/09/15 08:05:26;;;;;;;7.10;3.00;;;;;;;21.42;69.44;98501.03;214782;1276;140034;-67
2022/09/15 08:10:32;;;;;;;4.80;3.20;;;;;;;21.44;68.63;98498.23;213426;1276;140729;-66
2022/09/15 08:15:36;;;;;;;6.80;3.30;;;;;;;21.48;68.55;98497.00;213331;1276;139598;-66
2022/09/15 08:20:41;;;;;;;9.30;3.30;;;;;;;21.40;67.61;98502.77;213415;1276;141464;-67
2022/09/15 08:25:45;;;;;;;4.50;2.60;;;;;;;21.31;67.24;98503.02;213660;1276;140495;-67
2022/09/15 08:30:48;;;;;;;7.80;3.00;;;;;;;21.27;67.03;98510.29;213659;1276;140306;-66
2022/09/15 08:35:53;;;;;;;9.20;3.20;;;;;;;21.41;66.93;98513.55;213307;1276;140405;-67
2022/09/15 08:41:04;;;;;;;4.30;2.60;;;;;;;21.55;66.58;98520.48;213170;1276;141274;-66
2022/09/15 08:46:14;;;;;;;3.30;1.80;;;;;;;21.55;65.20;98527.66;214155;1276;140921;-67
2022/09/15 08:51:39;;;;;;;8.20;2.10;;;;;;;21.50;64.69;98526.80;214381;1275;140771;-67
2022/09/15 08:56:43;;;;;;;8.70;2.20;;;;;;;21.75;64.38;98523.67;214220;1275;140595;-67
2022/09/15 09:02:13;;;;;;;6.70;2.90;;;;;;;21.77;63.50;98523.84;215829;1276;140451;-67
2022/09/15 09:07:36;;;;;;;2.10;1.30;;;;;;;21.89;63.05;98518.48;215086;1276;140831;-67
2022/09/15 09:12:51;;;;;;;3.50;2.00;;;;;;;22.05;62.44;98524.73;215449;1276;139134;-67
2022/09/15 09:18:26;;;;;;;7.60;2.20;;;;;;;21.88;61.45;98518.23;215921;1276;140823;-67
2022/09/15 09:23:32;;;;;;;4.70;2.50;;;;;;;21.32;60.96;98523.29;215934;1276;139087;-67
2022/09/15 09:28:57;;;;;;;3.00;2.40;;;;;;;21.28;61.33;98520.59;214833;1276;139778;-67
2022/09/15 09:34:09;;;;;;;5.40;2.50;;;;;;;21.39;61.49;98520.08;214282;1276;139908;-67
2022/09/15 09:39:16;;;;;;;4.40;1.70;;;;;;;21.55;61.09;98525.41;213688;1276;139415;-66
2022/09/15 09:44:19;;;;;;;;;;;;;;;21.65;60.47;98524.95;214701;1276;139186;-66
2022/09/15 09:49:33;;;;;;;14.30;2.60;;;;;;;21.19;59.96;98524.78;214539;1276;126660;-66
2022/09/15 09:54:36;;;;;;;7.20;1.80;;;;;;;21.05;60.33;98521.60;211386;1276;3753194;-66
2022/09/15 09:59:43;;;;;;;4.70;1.30;;;;;;;21.34;60.46;98513.17;214738;1276;141198;-67
2022/09/15 10:05:18;;;;;;;2.80;1.50;;;;;;;21.48;59.67;98511.88;214259;1276;140505;-66
2022/09/15 10:10:27;;;;;;;2.00;1.70;;;;;;;21.10;58.87;98521.05;213453;1276;141158;-67
2022/09/15 10:15:33;;;;;;;4.40;1.90;;;;;;;21.14;59.47;98505.64;213905;1276;236858;-66
2022/09/15 10:20:49;;;;;;;2.50;1.70;;;;;;;21.53;59.74;98487.09;213750;1276;140600;-66
2022/09/15 10:25:57;;;;;;;3.70;1.60;;;;;;;21.79;58.95;98495.61;214879;1276;143173;-66
2022/09/15 10:31:15;;;;;;;3.10;1.60;;;;;;;21.74;57.57;98494.52;213880;1276;140061;-66
2022/09/15 10:36:32;;;;;;;5.60;2.00;;;;;;;21.59;57.22;98487.98;215264;1276;139981;-67
2022/09/15 10:41:43;;;;;;;4.10;1.70;;;;;;;21.49;57.42;98496.48;213128;1277;140782;-66
2022/09/15 10:47:04;;;;;;;1.90;1.70;;;;;;;21.29;57.08;98491.77;213197;1277;141471;-67
2022/09/15 10:52:29;;;;;;;4.10;1.90;;;;;;;21.07;56.99;98501.84;213423;1276;139431;-66
2022/09/15 10:57:56;;;;;;;3.50;2.30;;;;;;;20.87;57.15;98489.27;213592;1277;139893;-66
2022/09/15 11:03:40;;;;;;;2.70;1.40;;;;;;;20.72;57.36;98490.02;214608;1276;140148;-67
2022/09/15 11:09:04;;;;;;;5.80;2.10;;;;;;;20.52;57.26;98488.14;215163;1276;139261;-67
2022/09/15 11:14:29;;;;;;;2.90;1.60;;;;;;;20.44;57.58;98492.10;214500;1276;141688;-66
2022/09/15 11:19:44;;;;;;;3.10;2.10;;;;;;;20.33;57.46;98494.76;215997;1276;140478;-66
2022/09/15 11:24:59;;;;;;;6.40;1.70;;;;;;;20.10;57.58;98488.60;216089;1276;140977;-66
2022/09/15 11:30:17;;;;;;;2.80;1.90;;;;;;;19.74;57.70;98487.71;215984;1276;141438;-66
2022/09/15 11:35:39;;;;;;;1.60;1.50;;;;;;;19.39;58.20;98497.45;215037;1276;150514;-66
2022/09/15 11:40:53;;;;;;;4.20;1.80;;;;;;;19.16;58.92;98495.96;214902;1276;140452;-65
2022/09/15 11:46:00;;;;;;;1.30;1.20;;;;;;;19.01;59.44;98495.59;213713;1276;140250;-66
2022/09/15 11:51:05;;;;;;;6.00;1.80;;;;;;;18.82;59.57;98495.39;213637;1277;140907;-67
2022/09/15 11:56:33;;;;;;;8.40;2.00;;;;;;;18.62;59.72;98493.42;213917;1277;141519;-65
2022/09/15 12:01:58;;;;;;;2.80;1.90;;;;;;;18.41;59.82;98503.63;213732;1276;139515;-66
2022/09/15 12:07:12;;;;;;;6.10;2.70;;;;;;;18.28;60.17;98503.02;214578;1276;139790;-66
2022/09/15 12:12:20;;;;;;;3.50;1.90;;;;;;;18.13;60.39;98504.91;213430;1276;141100;-65
2022/09/15 12:17:46;;;;;;;3.40;1.90;;;;;;;18.00;60.73;98502.11;213637;1276;140266;-67
2022/09/15 12:23:18;;;;;;;2.80;1.90;;;;;;;17.99;61.28;98504.84;213164;1276;143281;-66
2022/09/15 12:28:23;;;;;;;6.20;1.90;;;;;;;17.94;61.43;98501.48;213434;1276;140241;-66
2022/09/15 12:33:52;;;;;;;3.50;1.60;;;;;;;17.89;61.96;98502.95;213500;1276;141681;-67
2022/09/15 12:38:55;;;;;;;5.80;2.00;;;;;;;17.87;62.10;98501.02;213632;1276;139632;-65
2022/09/15 12:44:04;;;;;;;4.30;2.20;;;;;;;17.93;62.54;98507.60;214558;1276;140777;-67
2022/09/15 12:49:19;;;;;;;5.40;2.30;;;;;;;17.99;62.67;98500.14;214563;1276;139990;-66
2022/09/15 12:54:28;;;;;;;4.90;1.80;;;;;;;18.12;62.84;98490.58;213939;1276;140660;-65
2022/09/15 12:59:31;;;;;;;8.90;2.20;;;;;;;18.26;62.46;98482.36;215262;1275;140177;-67
2022/09/15 13:04:51;;;;;;;6.00;2.80;;;;;;;18.37;62.25;98484.50;213222;1276;141401;-66
2022/09/15 13:10:13;;;;;;;3.60;1.20;;;;;;;18.37;61.88;98484.30;214359;1276;140104;-66
2022/09/15 13:15:17;;;;;;;3.30;1.80;;;;;;;18.34;61.76;98477.64;213673;1277;139934;-66
2022/09/15 13:20:29;;;;;;;1.30;1.20;;;;;;;18.33;61.58;98470.56;213541;1276;140224;-66
2022/09/15 13:25:32;;;;;;;3.80;1.70;;;;;;;18.30;61.36;98463.65;215482;1276;140059;-66
2022/09/15 13:30:43;;;;;;;3.90;1.80;;;;;;;18.26;61.30;98456.59;215922;1276;140055;-66
2022/09/15 13:36:04;;;;;;;4.20;1.80;;;;;;;18.17;61.45;98455.88;215780;1276;139673;-66
2022/09/15 13:41:30;;;;;;;3.80;1.80;;;;;;;18.21;61.68;98458.46;213579;1276;139659;-65
2022/09/15 13:46:37;;;;;;;2.60;1.70;;;;;;;18.43;61.81;98448.50;214673;1276;139662;-65
2022/09/15 13:51:43;;;;;;;4.30;2.00;;;;;;;18.70;61.74;98435.95;213292;1276;142728;-65
2022/09/15 13:56:51;;;;;;;3.20;1.60;;;;;;;18.64;61.32;98440.65;214141;1276;139952;-65
2022/09/15 14:01:57;;;;;;;6.10;2.20;;;;;;;18.62;61.56;98438.82;214436;1276;140992;-66
2022/09/15 14:07:01;;;;;;;4.70;2.10;;;;;;;18.81;61.62;98433.33;213399;1276;139641;-65
2022/09/15 14:12:10;;;;;;;6.90;2.50;;;;;;;18.88;61.18;98425.67;213608;1276;139727;-68
2022/09/15 14:17:29;;;;;;;2.50;1.90;;;;;;;18.76;61.29;98418.59;213886;1276;139946;-67
2022/09/15 14:22:33;;;;;;;2.80;1.60;;;;;;;18.73;61.21;98419.11;213767;1276;140052;-66
2022/09/15 14:27:43;;;;;;;5.00;2.10;;;;;;;18.73;61.53;98419.81;213717;1276;141995;-66
2022/09/15 14:32:48;;;;;;;3.70;2.70;;;;;;;18.79;61.47;98410.49;213687;1276;139473;-66
2022/09/15 14:37:56;;;;;;;6.50;2.80;;;;;;;18.83;61.21;98414.65;212900;1276;150052;-66
2022/09/15 14:43:00;;;;;;;3.30;2.00;;;;;;;18.89;61.27;98417.31;213111;1276;140658;-65
2022/09/15 14:48:08;;;;;;;3.00;1.80;;;;;;;18.91;61.20;98413.31;213495;1276;141288;-65
2022/09/15 14:53:20;;;;;;;3.20;2.10;;;;;;;18.84;61.18;98413.48;214985;1276;140682;-67
2022/09/15 14:58:33;;;;;;;2.60;2.40;;;;;;;18.74;61.27;98406.63;213227;1276;141947;-66
2022/09/15 15:03:49;;;;;;;4.90;2.70;;;;;;;18.66;61.18;98407.96;214538;1276;140896;-65
2022/09/15 15:09:02;;;;;;;2.30;2.10;;;;;;;18.55;61.23;98411.11;213927;1277;140442;-65
2022/09/15 15:14:06;;;;;;;3.50;2.50;;;;;;;18.47;61.35;98410.59;213853;1276;140132;-65
2022/09/15 15:19:33;;;;;;;5.20;2.40;;;;;;;18.32;61.33;98413.05;213167;1276;140121;-67
2022/09/15 15:24:41;;;;;;;2.80;1.80;;;;;;;18.18;61.38;98407.05;214280;1276;140543;-67
2022/09/15 15:29:46;;;;;;;5.70;3.00;;;;;;;18.10;61.92;98405.10;215493;1276;228538;-67
2022/09/15 15:34:50;;;;;;;7.50;2.70;;;;;;;18.12;62.23;98407.84;215638;1275;139863;-67
2022/09/15 15:39:56;;;;;;;5.30;2.60;;;;;;;18.15;62.16;98403.87;215019;1275;140901;-66
2022/09/15 15:45:11;;;;;;;4.30;3.00;;;;;;;18.07;62.40;98404.78;215574;1276;141052;-67
2022/09/15 15:50:23;;;;;;;4.80;2.40;;;;;;;17.97;62.54;98405.80;213699;1276;139950;-66
2022/09/15 15:55:38;;;;;;;2.20;2.10;;;;;;;17.82;62.71;98402.33;213981;1276;139818;-66
2022/09/15 16:00:55;;;;;;;3.80;3.00;;;;;;;17.64;62.93;98400.20;213142;1276;140100;-66
2022/09/15 16:06:01;;;;;;;3.60;2.50;;;;;;;17.46;63.47;98403.06;212900;1276;139628;-66
2022/09/15 16:11:08;;;;;;;2.70;2.20;;;;;;;17.31;63.82;98404.83;214867;1276;139399;-66
2022/09/15 16:16:18;;;;;;;7.20;2.50;;;;;;;17.23;64.13;98401.27;212999;1276;140494;-66
2022/09/15 16:21:37;;;;;;;4.50;2.70;;;;;;;17.18;64.47;98408.55;212915;1276;140131;-66
2022/09/15 16:26:48;;;;;;;2.70;2.30;;;;;;;17.12;64.71;98410.21;213499;1276;139271;-66
2022/09/15 16:31:58;;;;;;;6.30;2.60;;;;;;;17.02;64.95;98412.61;213358;1276;141432;-67
2022/09/15 16:37:02;;;;;;;4.40;2.30;;;;;;;16.90;65.19;98413.29;213674;1276;140142;-67
2022/09/15 16:42:07;;;;;;;6.00;3.10;;;;;;;16.74;65.38;98415.30;214090;1276;139465;-66
2022/09/15 16:47:10;;;;;;;3.40;2.70;;;;;;;16.62;65.85;98416.11;214187;1276;140050;-65
2022/09/15 16:52:17;;;;;;;3.60;2.40;;;;;;;16.55;65.89;98408.13;214641;1275;142679;-65
2022/09/15 16:57:21;;;;;;;7.70;3.80;;;;;;;16.45;66.12;98412.46;214411;1274;140559;-66
2022/09/15 17:02:28;;;;;;;8.00;3.30;;;;;;;16.33;66.35;98415.81;213770;1276;140463;-67
2022/09/15 17:07:31;;;;;;;4.10;3.10;;;;;;;16.23;66.65;98422.23;213760;1276;141241;-67
2022/09/15 17:12:36;;;;;;;4.90;3.20;;;;;;;16.15;66.92;98432.48;213712;1276;141440;-67
2022/09/15 17:17:40;;;;;;;4.50;3.60;;;;;;;16.13;67.24;98429.61;213677;1276;140720;-69
2022/09/15 17:22:49;;;;;;;15.50;3.60;;;;;;;16.10;67.39;98434.35;215528;1276;141026;-68
2022/09/15 17:27:56;;;;;;;6.60;3.00;;;;;;;16.05;67.52;98428.98;215820;1276;139756;-69
2022/09/15 17:33:02;;;;;;;3.90;3.60;;;;;;;15.98;67.74;98429.73;215440;1276;143173;-66
2022/09/15 17:38:06;;;;;;;4.00;3.30;;;;;;;15.96;67.77;98434.96;215483;1276;141632;-65
2022/09/15 17:43:16;;;;;;;6.60;3.30;;;;;;;15.97;67.88;98442.43;214723;1276;141968;-67
2022/09/15 17:48:19;;;;;;;9.10;3.70;;;;;;;15.94;68.08;98445.77;214257;1276;140310;-65
2022/09/15 17:53:27;;;;;;;3.30;3.10;;;;;;;15.90;68.26;98448.37;214729;1275;142809;-67
2022/09/15 17:58:30;;;;;;;12.20;4.70;;;;;;;15.86;68.42;98453.46;213558;1276;142062;-67
2022/09/15 18:03:35;;;;;;;4.50;3.70;;;;;;;15.85;68.54;98454.24;214834;1276;141850;-67
2022/09/15 18:08:41;;;;;;;6.00;3.70;;;;;;;15.82;68.82;98455.86;213651;1275;161448;-66
2022/09/15 18:13:47;;;;;;;5.50;4.00;;;;;;;15.80;68.92;98456.75;213395;1276;141367;-66
2022/09/15 18:18:51;;;;;;;4.70;3.10;;;;;;;15.78;69.24;98460.86;213831;1276;142748;-67
2022/09/15 18:23:55;;;;;;;9.00;3.90;;;;;;;15.75;69.31;98459.95;213232;1276;139869;-66
2022/09/15 18:28:58;;;;;;;5.50;4.30;;;;;;;15.73;69.53;98457.16;214164;1275;141418;-66
2022/09/15 18:34:00;;;;;;;8.30;3.80;;;;;;;15.71;69.72;98461.88;213221;1276;140905;-66
2022/09/15 18:39:04;;;;;;;10.50;4.60;;;;;;;15.69;69.94;98472.45;213008;1276;141346;-66
2022/09/15 18:44:07;;;;;;;4.80;3.90;;;;;;;15.65;70.06;98470.03;213661;1276;141561;-66
2022/09/15 18:49:10;;;;;;;6.50;4.70;;;;;;;15.65;70.17;98463.10;213134;1276;141594;-66
2022/09/15 18:54:13;;;;;;;29.30;6.40;;;;;;;15.65;70.41;98464.77;214543;1276;139708;-65
2022/09/15 18:59:19;;;;;;;4.40;4.00;;;;;;;15.63;70.39;98463.68;214153;1276;139557;-65
2022/09/15 19:04:22;;;;;;;4.40;3.80;;;;;;;15.56;70.50;98470.90;215004;1276;140180;-66
2022/09/15 19:09:30;;;;;;;6.40;4.60;;;;;;;15.46;70.65;98470.33;215017;1276;140449;-65
2022/09/15 19:14:33;;;;;;;9.60;4.80;;;;;;;15.45;70.76;98474.64;215313;1276;140353;-65
2022/09/15 19:19:36;;;;;;;8.10;4.60;;;;;;;15.47;70.60;98480.67;215208;1276;140596;-65
2022/09/15 19:24:39;;;;;;;4.60;4.20;;;;;;;15.49;70.80;98483.81;215503;1277;139951;-66
2022/09/15 19:29:45;;;;;;;7.30;4.30;;;;;;;15.45;70.87;98483.23;215760;1276;139836;-65
2022/09/15 19:34:47;;;;;;;5.00;4.30;;;;;;;15.44;70.90;98480.90;215693;1276;139657;-65
2022/09/15 19:39:53;;;;;;;5.10;4.40;;;;;;;15.41;70.90;98485.73;214250;1276;140215;-67
2022/09/15 19:44:58;;;;;;;4.80;4.40;;;;;;;15.35;70.81;98480.52;214899;1276;140796;-66
2022/09/15 19:50:04;;;;;;;6.30;3.40;;;;;;;15.28;70.81;98480.98;215071;1276;140054;-67
2022/09/15 19:55:10;;;;;;;6.80;3.70;;;;;;;15.18;70.72;98483.95;213234;1276;139599;-66
2022/09/15 20:00:13;;;;;;;4.30;3.50;;;;;;;15.11;70.75;98490.81;214435;1276;140017;-66
2022/09/15 20:05:16;;;;;;;4.70;4.00;;;;;;;15.04;70.66;98489.70;214190;1276;140327;-66
2022/09/15 20:10:21;;;;;;;3.50;3.20;;;;;;;14.91;70.77;98495.71;213240;1276;139797;-65
2022/09/15 20:15:26;;;;;;;6.80;4.50;;;;;;;14.79;70.93;98497.77;213084;1276;141177;-66
2022/09/15 20:20:31;;;;;;;4.40;4.00;;;;;;;14.69;70.91;98498.26;214260;1276;141067;-66
2022/09/15 20:25:34;;;;;;;6.60;3.70;;;;;;;14.51;70.94;98497.66;213816;1276;141441;-66
2022/09/15 20:30:37;;;;;;;4.30;3.90;;;;;;;14.38;71.22;98506.51;213672;1276;141068;-65
2022/09/15 20:35:41;;;;;;;5.50;4.10;;;;;;;14.29;71.47;98507.06;213689;1276;140674;-66
2022/09/15 20:40:46;;;;;;;5.60;3.60;;;;;;;14.23;71.61;98508.52;213671;1276;140037;-67
2022/09/15 20:45:59;;;;;;;7.10;3.80;;;;;;;14.17;71.71;98507.85;214325;1276;141168;-67
2022/09/15 20:51:11;;;;;;;4.00;3.30;;;;;;;14.10;71.79;98512.00;214813;1274;141823;-64
2022/09/15 20:56:15;;;;;;;5.00;3.20;;;;;;;14.03;71.78;98505.15;212843;1276;143251;-66
2022/09/15 21:01:23;;;;;;;3.60;3.10;;;;;;;13.95;71.78;98505.84;214820;1276;140951;-67
2022/09/15 21:06:27;;;;;;;2.90;2.70;;;;;;;13.88;71.90;98506.86;213632;1276;139725;-66
2022/09/15 21:11:30;;;;;;;3.50;3.10;;;;;;;13.77;71.98;98503.73;214064;1276;139711;-67
2022/09/15 21:16:33;;;;;;;6.70;2.80;;;;;;;13.67;72.19;98505.98;215054;1275;140943;-67
2022/09/15 21:21:36;;;;;;;6.10;3.80;;;;;;;13.60;72.37;98508.52;215767;1276;139694;-67
2022/09/15 21:32:03;;;;;;;6.40;3.60;;;;;;;13.45;72.33;98509.69;215492;1276;141431;-67
2022/09/15 21:37:05;;;;;;;4.10;3.40;;;;;;;13.39;72.63;98511.52;215212;1276;142381;-67
2022/09/15 21:42:11;;;;;;;6.00;4.20;;;;;;;13.34;72.51;98516.48;214609;1275;142209;-67
2022/09/15 21:47:14;;;;;;;5.30;3.90;;;;;;;13.31;72.55;98520.75;213769;1276;142997;-66
2022/09/15 21:52:17;;;;;;;3.00;2.70;;;;;;;13.27;72.66;98518.59;214247;1276;142241;-68
2022/09/15 21:57:20;;;;;;;5.90;4.40;;;;;;;13.18;72.63;98524.77;213308;1276;1557575;-68
2022/09/15 22:02:23;;;;;;;8.80;3.80;;;;;;;13.09;72.89;98529.38;214649;1276;141046;-65
2022/09/15 22:07:26;;;;;;;7.20;3.70;;;;;;;12.95;73.15;98531.83;214043;1276;142086;-67
2022/09/15 22:12:29;;;;;;;10.20;3.80;;;;;;;12.93;73.36;98537.56;214482;1276;151802;-67
2022/09/15 22:17:31;;;;;;;7.20;3.40;;;;;;;12.86;73.37;98540.84;212992;1276;141709;-65
2022/09/15 22:22:34;;;;;;;5.10;3.80;;;;;;;12.78;73.63;98543.78;213210;1276;142263;-66
2022/09/15 22:27:37;;;;;;;4.30;3.80;;;;;;;12.69;73.57;98547.26;214040;1276;142366;-66
2022/09/15 22:32:39;;;;;;;6.60;4.00;;;;;;;12.59;73.74;98547.15;214273;1276;141326;-69
2022/09/15 22:37:42;;;;;;;6.00;4.50;;;;;;;12.56;73.90;98554.86;213089;1276;141889;-68
2022/09/15 22:42:45;;;;;;;7.30;4.30;;;;;;;12.54;74.22;98562.05;213732;1276;141649;-66
2022/09/15 22:47:47;;;;;;;4.40;3.90;;;;;;;12.47;74.74;98568.45;213685;1276;141940;-65
2022/09/15 22:52:50;;;;;;;5.90;3.80;;;;;;;12.49;74.80;98571.34;213221;1276;141362;-65
2022/09/15 22:57:53;;;;;;;3.40;3.10;;;;;;;12.48;74.86;98575.73;213753;1276;141280;-66
2022/09/15 23:02:56;;;;;;;5.50;3.30;;;;;;;12.37;74.66;98578.11;213896;1276;141612;-66
2022/09/15 23:07:59;;;;;;;4.30;3.90;;;;;;;12.21;74.80;98580.43;214162;1276;141655;-66
2022/09/15 23:13:01;;;;;;;4.30;3.90;;;;;;;12.11;75.16;98575.98;214997;1276;211723;-66
2022/09/15 23:18:03;;;;;;;8.80;5.00;;;;;;;12.09;75.41;98580.79;215675;1276;141993;-66
2022/09/15 23:23:05;;;;;;;4.70;3.90;;;;;;;12.11;75.58;98582.01;215996;1276;140984;-67
2022/09/15 23:28:09;;;;;;;6.60;3.80;;;;;;;12.10;75.80;98578.17;215397;1276;141536;-66
2022/09/15 23:33:12;;;;;;;3.60;3.30;;;;;;;12.06;75.72;98574.55;215513;1276;140476;-65
2022/09/15 23:38:15;;;;;;;4.50;4.10;;;;;;;12.10;76.16;98572.19;215682;1276;143244;-65